Taiki Maru — JI3464 — position and weather

sailwx.info

Track history (hours):
 
Tides and Currents Weather Stations Pressure Air Temp Water Temp Dewpoint Dewpoint Depression Visibility Wind Speed Wind Dir Waves Ship Positions

Taiki Maru

Last reported at 2018-Feb-21 01:43 UTC. Time now 2018-Feb-21 17:34 UTC.
Position N 33°50' E 134°52'.

Length 93 m; draft 5.2 m.

Type: Cargo ship. MMSI: 431300622.

Date/timePositionNaut miles runAvg speedWind from/ knotsBaromVisibWave heightAir tempDewpointWater temp
2018-Feb-21 01:43N 33°50' E 134°52'313.6
2018-Feb-21 01:30N 33°53' E 134°53'713.5
2018-Feb-21 01:01N 33°58' E 134°57'714.2
2018-Feb-21 00:31N 34°04' E 135°01'714.0
2018-Feb-21 00:00N 34°11' E 135°04'4 8.4
2018-Feb-20 23:30N 34°14' E 135°08'0 0.2
2018-Feb-20 22:58N 34°14' E 135°08'0 0.0
2018-Feb-20 22:28N 34°14' E 135°08'0 0.0
2018-Feb-20 21:58N 34°14' E 135°08'0 0.0
2018-Feb-20 21:28N 34°14' E 135°08'0 0.0
2018-Feb-20 20:58N 34°14' E 135°08'0 0.0
2018-Feb-20 20:28N 34°14' E 135°08'0 0.0
2018-Feb-20 19:58N 34°14' E 135°08'0 0.0
2018-Feb-20 19:28N 34°14' E 135°08'0 0.0
2018-Feb-20 18:58N 34°14' E 135°08'0 0.0
2018-Feb-20 18:28N 34°14' E 135°08'0 0.0
2018-Feb-20 17:58N 34°14' E 135°08'0 0.0
2018-Feb-20 17:28N 34°14' E 135°08'0 0.0
2018-Feb-20 16:58N 34°14' E 135°08'0 0.0
2018-Feb-20 16:28N 34°14' E 135°08'0 0.0
2018-Feb-20 15:58N 34°14' E 135°08'0 0.0
2018-Feb-20 15:28N 34°14' E 135°08'0 0.0
2018-Feb-20 14:58N 34°14' E 135°08'0 0.0
2018-Feb-20 14:28N 34°14' E 135°08'0 0.0
2018-Feb-20 13:58N 34°14' E 135°08'0 0.0
2018-Feb-20 13:28N 34°14' E 135°08'0 0.0
2018-Feb-20 12:58N 34°14' E 135°08'0 0.0
2018-Feb-20 12:28N 34°14' E 135°08'0 0.0
2018-Feb-20 11:58N 34°14' E 135°08'0 0.0
2018-Feb-20 11:28N 34°14' E 135°08'0 0.0
2018-Feb-20 10:58N 34°14' E 135°08'0 0.1
2018-Feb-20 10:28N 34°14' E 135°08'0 0.1
2018-Feb-20 09:58N 34°14' E 135°08'0 0.0
2018-Feb-20 09:28N 34°14' E 135°08'0 0.0
2018-Feb-20 08:59N 34°14' E 135°08'1 3.0
2018-Feb-20 08:30N 34°14' E 135°06'3 5.8
2018-Feb-20 08:00N 34°11' E 135°07'0 0.3
2018-Feb-20 07:28N 34°11' E 135°07'0 0.0
2018-Feb-20 06:58N 34°11' E 135°07'0 0.0
2018-Feb-20 06:28N 34°11' E 135°07'0 0.0
2018-Feb-20 05:58N 34°11' E 135°07'0 0.0
2018-Feb-20 05:28N 34°11' E 135°07'0 0.0
2018-Feb-20 04:58N 34°11' E 135°07'0 0.0
2018-Feb-20 04:28N 34°11' E 135°07'0 0.0
2018-Feb-20 03:58N 34°11' E 135°07'0 0.0
2018-Feb-20 03:28N 34°11' E 135°07'0 0.0
2018-Feb-20 02:58N 34°11' E 135°07'0 0.1
2018-Feb-20 02:28N 34°11' E 135°07'0 0.0
2018-Feb-20 01:58N 34°11' E 135°07'0 0.0
2018-Feb-20 01:25N 34°11' E 135°07'0 0.0
2018-Feb-20 00:58N 34°11' E 135°07'0 0.0
2018-Feb-20 00:28N 34°11' E 135°07'0 0.1
2018-Feb-19 23:58N 34°11' E 135°07'0 0.0
2018-Feb-19 23:28N 34°11' E 135°07'0 0.0
2018-Feb-19 22:58N 34°11' E 135°07'0 0.0
2018-Feb-19 22:28N 34°11' E 135°07'0 0.0
2018-Feb-19 21:58N 34°11' E 135°07'0 0.0
2018-Feb-19 21:28N 34°11' E 135°07'0 0.0
2018-Feb-19 20:58N 34°11' E 135°07'0 0.1
2018-Feb-19 20:28N 34°11' E 135°07'0 0.1
2018-Feb-19 19:59N 34°11' E 135°07'3 6.2
2018-Feb-19 19:30N 34°13' E 135°04'612.7
2018-Feb-19 19:00N 34°17' E 134°59'713.4
2018-Feb-19 18:30N 34°24' E 135°00'713.2
2018-Feb-19 18:00N 34°30' E 135°02'612.0
2018-Feb-19 17:30N 34°36' E 135°02'612.5
2018-Feb-19 17:00N 34°36' E 134°54'612.5
2018-Feb-19 16:30N 34°39' E 134°47'611.8
2018-Feb-19 16:00N 34°41' E 134°41'611.4
2018-Feb-19 15:30N 34°42' E 134°34'612.1
2018-Feb-19 15:00N 34°42' E 134°26'4 8.1
2018-Feb-19 14:30N 34°44' E 134°22'1 0.1
2018-Feb-19 01:49N 34°45' E 134°22'1 3.4
2018-Feb-19 01:30N 34°44' E 134°22'5 9.2
2018-Feb-19 01:00N 34°42' E 134°27'714.3
2018-Feb-19 00:30N 34°43' E 134°36'713.6
2018-Feb-19 00:00N 34°40' E 134°43'815.1
2018-Feb-18 23:31N 34°38' E 134°52'815.3
2018-Feb-18 23:00N 34°37' E 135°01'612.4
2018-Feb-18 22:31N 34°32' E 135°05'714.1
2018-Feb-18 22:01N 34°25' E 135°02'714.0
2018-Feb-18 21:31N 34°18' E 134°60'611.4
2018-Feb-18 21:01N 34°15' E 135°05'2 4.2
2018-Feb-18 20:28N 34°14' E 135°08'0 0.1
2018-Feb-18 19:58N 34°14' E 135°08'0 0.1
2018-Feb-18 19:25N 34°14' E 135°08'0 0.0
2018-Feb-18 18:58N 34°14' E 135°08'0 0.0
2018-Feb-18 18:28N 34°14' E 135°08'0 0.0
2018-Feb-18 17:58N 34°14' E 135°08'0 0.0
2018-Feb-18 17:28N 34°14' E 135°08'0 0.0
2018-Feb-18 16:58N 34°14' E 135°08'0 0.0
2018-Feb-18 16:28N 34°14' E 135°08'0 0.0
2018-Feb-18 15:58N 34°14' E 135°08'0 0.0
2018-Feb-18 15:28N 34°14' E 135°08'0 0.0
2018-Feb-18 14:58N 34°14' E 135°08'0 0.0
2018-Feb-18 14:28N 34°14' E 135°08'0 0.0
2018-Feb-18 13:58N 34°14' E 135°08'0 0.1
2018-Feb-18 13:28N 34°14' E 135°08'0 0.1
2018-Feb-18 12:58N 34°14' E 135°08'0 0.0
2018-Feb-18 12:28N 34°14' E 135°08'0 0.0
2018-Feb-18 11:58N 34°14' E 135°08'0 0.0
2018-Feb-18 11:28N 34°14' E 135°08'0 0.1
2018-Feb-18 10:58N 34°14' E 135°08'0 0.1
2018-Feb-18 10:28N 34°14' E 135°08'0 0.0
2018-Feb-18 09:58N 34°14' E 135°08'0 0.0
2018-Feb-18 09:28N 34°14' E 135°08'0 0.0
2018-Feb-18 08:58N 34°14' E 135°08'0 0.0
2018-Feb-18 08:28N 34°14' E 135°08'0 0.0
2018-Feb-18 07:58N 34°14' E 135°08'0 0.0
2018-Feb-18 07:28N 34°14' E 135°08'0 0.0
2018-Feb-18 06:58N 34°14' E 135°08'0 0.0
2018-Feb-18 06:28N 34°14' E 135°08'0 0.9
2018-Feb-18 06:00N 34°14' E 135°07'2 3.8
2018-Feb-18 05:30N 34°12' E 135°06'1 1.3
2018-Feb-18 04:58N 34°12' E 135°07'0 0.0
2018-Feb-18 04:25N 34°12' E 135°07'0 0.1
2018-Feb-18 03:58N 34°12' E 135°07'0 0.1
2018-Feb-18 03:28N 34°12' E 135°07'0 0.1
2018-Feb-18 02:55N 34°12' E 135°07'0 0.1
2018-Feb-18 02:28N 34°12' E 135°07'0 0.1
2018-Feb-18 01:58N 34°12' E 135°07'0 0.0
2018-Feb-18 01:28N 34°12' E 135°07'0 0.0
2018-Feb-18 00:58N 34°12' E 135°07'0 0.0
2018-Feb-18 00:28N 34°12' E 135°07'0 0.0
2018-Feb-17 23:58N 34°12' E 135°07'0 0.1
2018-Feb-17 23:28N 34°12' E 135°07'0 0.0
2018-Feb-17 22:58N 34°12' E 135°07'0 0.0
2018-Feb-17 22:28N 34°12' E 135°07'0 0.0
2018-Feb-17 21:58N 34°12' E 135°07'0 0.0
2018-Feb-17 21:28N 34°12' E 135°07'0 0.0
2018-Feb-17 20:58N 34°12' E 135°07'0 0.0
2018-Feb-17 20:28N 34°12' E 135°07'0 0.1
2018-Feb-17 19:58N 34°12' E 135°07'0 0.0
2018-Feb-17 19:28N 34°12' E 135°07'0 0.1
2018-Feb-17 18:58N 34°12' E 135°07'0 0.0
2018-Feb-17 18:28N 34°12' E 135°07'0 0.0
2018-Feb-17 17:58N 34°12' E 135°07'0 0.0
2018-Feb-17 17:28N 34°12' E 135°07'0 0.0
2018-Feb-17 16:58N 34°12' E 135°07'0 0.0
2018-Feb-17 16:28N 34°12' E 135°07'0 0.0
2018-Feb-17 15:58N 34°12' E 135°07'0 0.0
2018-Feb-17 15:28N 34°12' E 135°07'0 0.0
2018-Feb-17 14:58N 34°12' E 135°07'0 0.0
2018-Feb-17 14:28N 34°12' E 135°07'0 0.0
2018-Feb-17 13:58N 34°12' E 135°07'0 0.0
2018-Feb-17 13:28N 34°12' E 135°07'0 0.0
2018-Feb-17 12:58N 34°12' E 135°07'0 0.0
2018-Feb-17 12:28N 34°12' E 135°07'0 0.0
2018-Feb-17 11:58N 34°12' E 135°07'0 0.0
2018-Feb-17 11:28N 34°12' E 135°07'0 0.0
2018-Feb-17 10:58N 34°12' E 135°07'0 0.0
2018-Feb-17 10:28N 34°12' E 135°07'0 0.0
2018-Feb-17 09:58N 34°12' E 135°07'0 0.0
2018-Feb-17 09:28N 34°12' E 135°07'0 0.0
2018-Feb-17 08:58N 34°12' E 135°07'0 0.0
2018-Feb-17 08:28N 34°12' E 135°07'0 0.0
2018-Feb-17 07:58N 34°12' E 135°07'0 0.0
2018-Feb-17 07:28N 34°12' E 135°07'0 0.0
2018-Feb-17 06:58N 34°12' E 135°07'0 0.0
2018-Feb-17 06:28N 34°12' E 135°07'0 0.0
2018-Feb-17 05:58N 34°12' E 135°07'0 0.0
2018-Feb-17 05:28N 34°12' E 135°07'0 0.0
2018-Feb-17 04:58N 34°12' E 135°07'0 0.0
2018-Feb-17 04:28N 34°12' E 135°07'0 0.1
2018-Feb-17 03:58N 34°12' E 135°07'0 0.0
2018-Feb-17 03:28N 34°12' E 135°07'0 0.0
2018-Feb-17 02:58N 34°12' E 135°07'0 0.0
2018-Feb-17 02:28N 34°12' E 135°07'0 0.0
2018-Feb-17 01:58N 34°12' E 135°07'0 0.0
2018-Feb-17 01:28N 34°12' E 135°07'0 0.0
2018-Feb-17 00:58N 34°12' E 135°07'0 0.0
2018-Feb-17 00:28N 34°12' E 135°07'0 0.0
2018-Feb-16 23:58N 34°12' E 135°07'0 0.0
2018-Feb-16 23:28N 34°12' E 135°07'0 0.0
2018-Feb-16 22:58N 34°12' E 135°07'0 0.0
2018-Feb-16 22:28N 34°12' E 135°07'0 0.0
2018-Feb-16 21:58N 34°12' E 135°07'0 0.0
2018-Feb-16 21:28N 34°12' E 135°07'0 0.0
2018-Feb-16 20:58N 34°12' E 135°07'0 0.0
2018-Feb-16 20:28N 34°12' E 135°07'0 0.0
2018-Feb-16 19:58N 34°12' E 135°07'0 0.2
2018-Feb-16 19:28N 34°12' E 135°07'0 0.1
2018-Feb-16 18:58N 34°12' E 135°07'0 0.0
2018-Feb-16 18:28N 34°12' E 135°07'0 0.0
2018-Feb-16 17:58N 34°12' E 135°07'0 0.0
2018-Feb-16 17:28N 34°12' E 135°07'0 0.0
2018-Feb-16 16:58N 34°12' E 135°07'0 0.0
2018-Feb-16 16:28N 34°12' E 135°07'0 0.0
2018-Feb-16 15:58N 34°12' E 135°07'0 0.0
2018-Feb-16 15:28N 34°12' E 135°07'0 0.0
2018-Feb-16 14:58N 34°12' E 135°07'0 0.0
2018-Feb-16 14:28N 34°12' E 135°07'0 0.0
2018-Feb-16 13:58N 34°12' E 135°07'0 0.0
2018-Feb-16 13:28N 34°12' E 135°07'0 0.0
2018-Feb-16 12:58N 34°12' E 135°07'0 0.0
2018-Feb-16 12:28N 34°12' E 135°07'0 0.0
2018-Feb-16 11:58N 34°12' E 135°07'0 0.1
2018-Feb-16 11:28N 34°12' E 135°07'0 0.0
2018-Feb-16 10:58N 34°12' E 135°07'0 0.0
2018-Feb-16 10:28N 34°12' E 135°07'0 0.0
2018-Feb-16 09:58N 34°12' E 135°07'0 0.0
2018-Feb-16 09:28N 34°12' E 135°07'0 0.0
2018-Feb-16 08:58N 34°12' E 135°07'0 0.0
2018-Feb-16 08:28N 34°12' E 135°07'0 0.0
2018-Feb-16 07:58N 34°12' E 135°07'0 0.0
2018-Feb-16 07:28N 34°12' E 135°07'0 0.0
2018-Feb-16 06:58N 34°12' E 135°07'0 0.0
2018-Feb-16 06:28N 34°12' E 135°07'0 0.0
2018-Feb-16 05:58N 34°12' E 135°07'0 0.0
2018-Feb-16 05:28N 34°12' E 135°07'0 0.0
2018-Feb-16 04:58N 34°12' E 135°07'0 0.0
2018-Feb-16 04:28N 34°12' E 135°07'0 0.0
2018-Feb-16 03:58N 34°12' E 135°07'0 0.0
2018-Feb-16 03:28N 34°12' E 135°07'0 0.0
2018-Feb-16 02:58N 34°12' E 135°07'0 0.0
2018-Feb-16 02:28N 34°12' E 135°07'0 0.1
2018-Feb-16 01:58N 34°12' E 135°07'0 0.0
2018-Feb-16 01:28N 34°12' E 135°07'0 0.1
2018-Feb-16 00:58N 34°12' E 135°07'0 0.0
2018-Feb-16 00:28N 34°12' E 135°07'0 0.0
2018-Feb-15 23:58N 34°12' E 135°07'0 0.0
2018-Feb-15 23:28N 34°12' E 135°07'0 0.0
2018-Feb-15 22:58N 34°12' E 135°07'0 0.0
2018-Feb-15 22:28N 34°12' E 135°07'0 0.0
2018-Feb-15 21:58N 34°12' E 135°07'0 0.1
2018-Feb-15 21:28N 34°12' E 135°07'0 0.0
2018-Feb-15 20:58N 34°12' E 135°07'0 0.0
2018-Feb-15 20:28N 34°12' E 135°07'0 0.1
2018-Feb-15 19:58N 34°12' E 135°07'0 0.0
2018-Feb-15 19:28N 34°12' E 135°07'0 0.1
2018-Feb-15 18:58N 34°12' E 135°07'0 0.0
2018-Feb-15 18:28N 34°12' E 135°07'0 0.0
2018-Feb-15 17:58N 34°12' E 135°07'0 0.0
2018-Feb-15 17:28N 34°12' E 135°07'0 0.0
2018-Feb-15 16:58N 34°12' E 135°07'0 0.0
2018-Feb-15 16:28N 34°12' E 135°07'0 0.0
2018-Feb-15 15:58N 34°12' E 135°07'0 0.1
2018-Feb-15 15:28N 34°12' E 135°07'0 0.1
2018-Feb-15 14:58N 34°12' E 135°07'0 0.0
2018-Feb-15 14:28N 34°12' E 135°07'0 0.0
2018-Feb-15 13:58N 34°12' E 135°07'0 0.6
2018-Feb-15 13:30N 34°11' E 135°07'510.3
2018-Feb-15 13:00N 34°08' E 135°03'611.6
2018-Feb-15 12:30N 34°02' E 135°01'611.8
2018-Feb-15 12:00N 33°56' E 134°59'611.7
2018-Feb-15 11:31N 33°51' E 134°57'1512.1
2018-Feb-15 10:18N 33°40' E 134°45'  
2018-Feb-12 09:15N 33°41' E 134°43'1612.9
2018-Feb-12 07:59N 33°55' E 134°55'714.0
2018-Feb-12 07:30N 34°01' E 134°56'713.4
2018-Feb-12 07:01N 34°07' E 134°59'713.7
2018-Feb-12 06:31N 34°13' E 135°04'4 6.8
2018-Feb-12 05:59N 34°14' E 135°08'0 0.0
2018-Feb-12 05:29N 34°14' E 135°08'0 0.0
2018-Feb-12 04:59N 34°14' E 135°08'0 0.0
2018-Feb-12 04:29N 34°14' E 135°08'0 0.0
2018-Feb-12 03:59N 34°14' E 135°08'0 0.0
2018-Feb-12 03:29N 34°14' E 135°08'0 0.0
2018-Feb-12 02:56N 34°14' E 135°08'0 0.0
2018-Feb-12 02:29N 34°14' E 135°08'0 0.0
2018-Feb-12 01:59N 34°14' E 135°08'0 0.0
2018-Feb-12 01:29N 34°14' E 135°08'0 0.0
2018-Feb-12 00:59N 34°14' E 135°08'0 0.0
2018-Feb-12 00:29N 34°14' E 135°08'0 0.0
2018-Feb-11 23:59N 34°14' E 135°08'0 0.0
2018-Feb-11 23:29N 34°14' E 135°08'0 0.0
2018-Feb-11 22:59N 34°14' E 135°08'0 0.0
2018-Feb-11 22:29N 34°14' E 135°08'0 0.0
2018-Feb-11 21:59N 34°14' E 135°08'0 0.0
2018-Feb-11 21:29N 34°14' E 135°08'0 0.0
2018-Feb-11 20:59N 34°14' E 135°08'0 0.0
2018-Feb-11 20:29N 34°14' E 135°08'0 0.0
2018-Feb-11 19:59N 34°14' E 135°08'0 0.1
2018-Feb-11 19:29N 34°14' E 135°08'0 0.0
2018-Feb-11 18:59N 34°14' E 135°08'0 0.1
2018-Feb-11 18:29N 34°14' E 135°08'0 0.0
2018-Feb-11 17:59N 34°14' E 135°08'0 0.0
2018-Feb-11 17:29N 34°14' E 135°08'0 0.0
2018-Feb-11 16:59N 34°14' E 135°08'0 0.0
2018-Feb-11 16:29N 34°14' E 135°08'0 0.0
2018-Feb-11 15:59N 34°14' E 135°08'0 0.0
2018-Feb-11 15:29N 34°14' E 135°08'0 0.0
2018-Feb-11 14:59N 34°14' E 135°08'0 0.0
2018-Feb-11 14:29N 34°14' E 135°08'0 0.0
2018-Feb-11 13:59N 34°14' E 135°08'0 0.0
2018-Feb-11 13:29N 34°14' E 135°08'0 0.0
2018-Feb-11 12:59N 34°14' E 135°08'0 0.0
2018-Feb-11 12:29N 34°14' E 135°08'1 1.2
2018-Feb-11 12:00N 34°14' E 135°07'2 4.7
2018-Feb-11 11:31N 34°12' E 135°06'2 3.8
2018-Feb-11 10:59N 34°11' E 135°07'0 0.0
2018-Feb-11 10:29N 34°11' E 135°07'0 0.0
2018-Feb-11 09:59N 34°11' E 135°07'0 0.0
2018-Feb-11 09:29N 34°11' E 135°07'0 0.0
2018-Feb-11 08:59N 34°11' E 135°07'0 0.1
2018-Feb-11 08:29N 34°11' E 135°07'0 0.0
2018-Feb-11 07:59N 34°11' E 135°07'0 0.0
2018-Feb-11 07:29N 34°11' E 135°07'0 0.0
2018-Feb-11 06:59N 34°11' E 135°07'0 0.0
2018-Feb-11 06:29N 34°11' E 135°07'0 0.0
2018-Feb-11 05:59N 34°11' E 135°07'0 0.0
2018-Feb-11 05:29N 34°11' E 135°07'0 0.0
2018-Feb-11 04:59N 34°11' E 135°07'0 0.0
2018-Feb-11 04:29N 34°11' E 135°07'0 0.0
2018-Feb-11 03:59N 34°11' E 135°07'0 0.3
2018-Feb-11 03:30N 34°11' E 135°07'4 7.5
2018-Feb-11 03:01N 34°09' E 135°03'510.9
2018-Feb-11 02:30N 34°04' E 135°01'511.0
2018-Feb-11 02:01N 33°58' E 134°60'  
Track history (hours):
 
Tides and Currents Weather Stations Pressure Air Temp Water Temp Dewpoint Dewpoint Depression Visibility Wind Speed Wind Dir Waves Ship Positions

Taiki Maru

Last reported at 2018-Feb-21 01:43 UTC. Time now 2018-Feb-21 17:34 UTC.
Position N 33°50' E 134°52'.

Length 93 m; draft 5.2 m.

Type: Cargo ship. MMSI: 431300622.

Date/timePositionNaut miles runAvg speedWind from/ knotsBaromVisibWave heightAir tempDewpointWater temp
2018-Feb-21 01:43N 33°50' E 134°52'313.6
2018-Feb-21 01:30N 33°53' E 134°53'713.5
2018-Feb-21 01:01N 33°58' E 134°57'714.2
2018-Feb-21 00:31N 34°04' E 135°01'714.0
2018-Feb-21 00:00N 34°11' E 135°04'4 8.4
2018-Feb-20 23:30N 34°14' E 135°08'0 0.2
2018-Feb-20 22:58N 34°14' E 135°08'0 0.0
2018-Feb-20 22:28N 34°14' E 135°08'0 0.0
2018-Feb-20 21:58N 34°14' E 135°08'0 0.0
2018-Feb-20 21:28N 34°14' E 135°08'0 0.0
2018-Feb-20 20:58N 34°14' E 135°08'0 0.0
2018-Feb-20 20:28N 34°14' E 135°08'0 0.0
2018-Feb-20 19:58N 34°14' E 135°08'0 0.0
2018-Feb-20 19:28N 34°14' E 135°08'0 0.0
2018-Feb-20 18:58N 34°14' E 135°08'0 0.0
2018-Feb-20 18:28N 34°14' E 135°08'0 0.0
2018-Feb-20 17:58N 34°14' E 135°08'0 0.0
2018-Feb-20 17:28N 34°14' E 135°08'0 0.0
2018-Feb-20 16:58N 34°14' E 135°08'0 0.0
2018-Feb-20 16:28N 34°14' E 135°08'0 0.0
2018-Feb-20 15:58N 34°14' E 135°08'0 0.0
2018-Feb-20 15:28N 34°14' E 135°08'0 0.0
2018-Feb-20 14:58N 34°14' E 135°08'0 0.0
2018-Feb-20 14:28N 34°14' E 135°08'0 0.0
2018-Feb-20 13:58N 34°14' E 135°08'0 0.0
2018-Feb-20 13:28N 34°14' E 135°08'0 0.0
2018-Feb-20 12:58N 34°14' E 135°08'0 0.0
2018-Feb-20 12:28N 34°14' E 135°08'0 0.0
2018-Feb-20 11:58N 34°14' E 135°08'0 0.0
2018-Feb-20 11:28N 34°14' E 135°08'0 0.0
2018-Feb-20 10:58N 34°14' E 135°08'0 0.1
2018-Feb-20 10:28N 34°14' E 135°08'0 0.1
2018-Feb-20 09:58N 34°14' E 135°08'0 0.0
2018-Feb-20 09:28N 34°14' E 135°08'0 0.0
2018-Feb-20 08:59N 34°14' E 135°08'1 3.0
2018-Feb-20 08:30N 34°14' E 135°06'3 5.8
2018-Feb-20 08:00N 34°11' E 135°07'0 0.3
2018-Feb-20 07:28N 34°11' E 135°07'0 0.0
2018-Feb-20 06:58N 34°11' E 135°07'0 0.0
2018-Feb-20 06:28N 34°11' E 135°07'0 0.0
2018-Feb-20 05:58N 34°11' E 135°07'0 0.0
2018-Feb-20 05:28N 34°11' E 135°07'0 0.0
2018-Feb-20 04:58N 34°11' E 135°07'0 0.0
2018-Feb-20 04:28N 34°11' E 135°07'0 0.0
2018-Feb-20 03:58N 34°11' E 135°07'0 0.0
2018-Feb-20 03:28N 34°11' E 135°07'0 0.0
2018-Feb-20 02:58N 34°11' E 135°07'0 0.1
2018-Feb-20 02:28N 34°11' E 135°07'0 0.0
2018-Feb-20 01:58N 34°11' E 135°07'0 0.0
2018-Feb-20 01:25N 34°11' E 135°07'0 0.0
2018-Feb-20 00:58N 34°11' E 135°07'0 0.0
2018-Feb-20 00:28N 34°11' E 135°07'0 0.1
2018-Feb-19 23:58N 34°11' E 135°07'0 0.0
2018-Feb-19 23:28N 34°11' E 135°07'0 0.0
2018-Feb-19 22:58N 34°11' E 135°07'0 0.0
2018-Feb-19 22:28N 34°11' E 135°07'0 0.0
2018-Feb-19 21:58N 34°11' E 135°07'0 0.0
2018-Feb-19 21:28N 34°11' E 135°07'0 0.0
2018-Feb-19 20:58N 34°11' E 135°07'0 0.1
2018-Feb-19 20:28N 34°11' E 135°07'0 0.1
2018-Feb-19 19:59N 34°11' E 135°07'3 6.2
2018-Feb-19 19:30N 34°13' E 135°04'612.7
2018-Feb-19 19:00N 34°17' E 134°59'713.4
2018-Feb-19 18:30N 34°24' E 135°00'713.2
2018-Feb-19 18:00N 34°30' E 135°02'612.0
2018-Feb-19 17:30N 34°36' E 135°02'612.5
2018-Feb-19 17:00N 34°36' E 134°54'612.5
2018-Feb-19 16:30N 34°39' E 134°47'611.8
2018-Feb-19 16:00N 34°41' E 134°41'611.4
2018-Feb-19 15:30N 34°42' E 134°34'612.1
2018-Feb-19 15:00N 34°42' E 134°26'4 8.1
2018-Feb-19 14:30N 34°44' E 134°22'1 0.1
2018-Feb-19 01:49N 34°45' E 134°22'1 3.4
2018-Feb-19 01:30N 34°44' E 134°22'5 9.2
2018-Feb-19 01:00N 34°42' E 134°27'714.3
2018-Feb-19 00:30N 34°43' E 134°36'713.6
2018-Feb-19 00:00N 34°40' E 134°43'815.1
2018-Feb-18 23:31N 34°38' E 134°52'815.3
2018-Feb-18 23:00N 34°37' E 135°01'612.4
2018-Feb-18 22:31N 34°32' E 135°05'714.1
2018-Feb-18 22:01N 34°25' E 135°02'714.0
2018-Feb-18 21:31N 34°18' E 134°60'611.4
2018-Feb-18 21:01N 34°15' E 135°05'2 4.2
2018-Feb-18 20:28N 34°14' E 135°08'0 0.1
2018-Feb-18 19:58N 34°14' E 135°08'0 0.1
2018-Feb-18 19:25N 34°14' E 135°08'0 0.0
2018-Feb-18 18:58N 34°14' E 135°08'0 0.0
2018-Feb-18 18:28N 34°14' E 135°08'0 0.0
2018-Feb-18 17:58N 34°14' E 135°08'0 0.0
2018-Feb-18 17:28N 34°14' E 135°08'0 0.0
2018-Feb-18 16:58N 34°14' E 135°08'0 0.0
2018-Feb-18 16:28N 34°14' E 135°08'0 0.0
2018-Feb-18 15:58N 34°14' E 135°08'0 0.0
2018-Feb-18 15:28N 34°14' E 135°08'0 0.0
2018-Feb-18 14:58N 34°14' E 135°08'0 0.0
2018-Feb-18 14:28N 34°14' E 135°08'0 0.0
2018-Feb-18 13:58N 34°14' E 135°08'0 0.1
2018-Feb-18 13:28N 34°14' E 135°08'0 0.1
2018-Feb-18 12:58N 34°14' E 135°08'0 0.0
2018-Feb-18 12:28N 34°14' E 135°08'0 0.0
2018-Feb-18 11:58N 34°14' E 135°08'0 0.0
2018-Feb-18 11:28N 34°14' E 135°08'0 0.1
2018-Feb-18 10:58N 34°14' E 135°08'0 0.1
2018-Feb-18 10:28N 34°14' E 135°08'0 0.0
2018-Feb-18 09:58N 34°14' E 135°08'0 0.0
2018-Feb-18 09:28N 34°14' E 135°08'0 0.0
2018-Feb-18 08:58N 34°14' E 135°08'0 0.0
2018-Feb-18 08:28N 34°14' E 135°08'0 0.0
2018-Feb-18 07:58N 34°14' E 135°08'0 0.0
2018-Feb-18 07:28N 34°14' E 135°08'0 0.0
2018-Feb-18 06:58N 34°14' E 135°08'0 0.0
2018-Feb-18 06:28N 34°14' E 135°08'0 0.9
2018-Feb-18 06:00N 34°14' E 135°07'2 3.8
2018-Feb-18 05:30N 34°12' E 135°06'1 1.3
2018-Feb-18 04:58N 34°12' E 135°07'0 0.0
2018-Feb-18 04:25N 34°12' E 135°07'0 0.1
2018-Feb-18 03:58N 34°12' E 135°07'0 0.1
2018-Feb-18 03:28N 34°12' E 135°07'0 0.1
2018-Feb-18 02:55N 34°12' E 135°07'0 0.1
2018-Feb-18 02:28N 34°12' E 135°07'0 0.1
2018-Feb-18 01:58N 34°12' E 135°07'0 0.0
2018-Feb-18 01:28N 34°12' E 135°07'0 0.0
2018-Feb-18 00:58N 34°12' E 135°07'0 0.0
2018-Feb-18 00:28N 34°12' E 135°07'0 0.0
2018-Feb-17 23:58N 34°12' E 135°07'0 0.1
2018-Feb-17 23:28N 34°12' E 135°07'0 0.0
2018-Feb-17 22:58N 34°12' E 135°07'0 0.0
2018-Feb-17 22:28N 34°12' E 135°07'0 0.0
2018-Feb-17 21:58N 34°12' E 135°07'0 0.0
2018-Feb-17 21:28N 34°12' E 135°07'0 0.0
2018-Feb-17 20:58N 34°12' E 135°07'0 0.0
2018-Feb-17 20:28N 34°12' E 135°07'0 0.1
2018-Feb-17 19:58N 34°12' E 135°07'0 0.0
2018-Feb-17 19:28N 34°12' E 135°07'0 0.1
2018-Feb-17 18:58N 34°12' E 135°07'0 0.0
2018-Feb-17 18:28N 34°12' E 135°07'0 0.0
2018-Feb-17 17:58N 34°12' E 135°07'0 0.0
2018-Feb-17 17:28N 34°12' E 135°07'0 0.0
2018-Feb-17 16:58N 34°12' E 135°07'0 0.0
2018-Feb-17 16:28N 34°12' E 135°07'0 0.0
2018-Feb-17 15:58N 34°12' E 135°07'0 0.0
2018-Feb-17 15:28N 34°12' E 135°07'0 0.0
2018-Feb-17 14:58N 34°12' E 135°07'0 0.0
2018-Feb-17 14:28N 34°12' E 135°07'0 0.0
2018-Feb-17 13:58N 34°12' E 135°07'0 0.0
2018-Feb-17 13:28N 34°12' E 135°07'0 0.0
2018-Feb-17 12:58N 34°12' E 135°07'0 0.0
2018-Feb-17 12:28N 34°12' E 135°07'0 0.0
2018-Feb-17 11:58N 34°12' E 135°07'0 0.0
2018-Feb-17 11:28N 34°12' E 135°07'0 0.0
2018-Feb-17 10:58N 34°12' E 135°07'0 0.0
2018-Feb-17 10:28N 34°12' E 135°07'0 0.0
2018-Feb-17 09:58N 34°12' E 135°07'0 0.0
2018-Feb-17 09:28N 34°12' E 135°07'0 0.0
2018-Feb-17 08:58N 34°12' E 135°07'0 0.0
2018-Feb-17 08:28N 34°12' E 135°07'0 0.0
2018-Feb-17 07:58N 34°12' E 135°07'0 0.0
2018-Feb-17 07:28N 34°12' E 135°07'0 0.0
2018-Feb-17 06:58N 34°12' E 135°07'0 0.0
2018-Feb-17 06:28N 34°12' E 135°07'0 0.0
2018-Feb-17 05:58N 34°12' E 135°07'0 0.0
2018-Feb-17 05:28N 34°12' E 135°07'0 0.0
2018-Feb-17 04:58N 34°12' E 135°07'0 0.0
2018-Feb-17 04:28N 34°12' E 135°07'0 0.1
2018-Feb-17 03:58N 34°12' E 135°07'0 0.0
2018-Feb-17 03:28N 34°12' E 135°07'0 0.0
2018-Feb-17 02:58N 34°12' E 135°07'0 0.0
2018-Feb-17 02:28N 34°12' E 135°07'0 0.0
2018-Feb-17 01:58N 34°12' E 135°07'0 0.0
2018-Feb-17 01:28N 34°12' E 135°07'0 0.0
2018-Feb-17 00:58N 34°12' E 135°07'0 0.0
2018-Feb-17 00:28N 34°12' E 135°07'0 0.0
2018-Feb-16 23:58N 34°12' E 135°07'0 0.0
2018-Feb-16 23:28N 34°12' E 135°07'0 0.0
2018-Feb-16 22:58N 34°12' E 135°07'0 0.0
2018-Feb-16 22:28N 34°12' E 135°07'0 0.0
2018-Feb-16 21:58N 34°12' E 135°07'0 0.0
2018-Feb-16 21:28N 34°12' E 135°07'0 0.0
2018-Feb-16 20:58N 34°12' E 135°07'0 0.0
2018-Feb-16 20:28N 34°12' E 135°07'0 0.0
2018-Feb-16 19:58N 34°12' E 135°07'0 0.2
2018-Feb-16 19:28N 34°12' E 135°07'0 0.1
2018-Feb-16 18:58N 34°12' E 135°07'0 0.0
2018-Feb-16 18:28N 34°12' E 135°07'0 0.0
2018-Feb-16 17:58N 34°12' E 135°07'0 0.0
2018-Feb-16 17:28N 34°12' E 135°07'0 0.0
2018-Feb-16 16:58N 34°12' E 135°07'0 0.0
2018-Feb-16 16:28N 34°12' E 135°07'0 0.0
2018-Feb-16 15:58N 34°12' E 135°07'0 0.0
2018-Feb-16 15:28N 34°12' E 135°07'0 0.0
2018-Feb-16 14:58N 34°12' E 135°07'0 0.0
2018-Feb-16 14:28N 34°12' E 135°07'0 0.0
2018-Feb-16 13:58N 34°12' E 135°07'0 0.0
2018-Feb-16 13:28N 34°12' E 135°07'0 0.0
2018-Feb-16 12:58N 34°12' E 135°07'0 0.0
2018-Feb-16 12:28N 34°12' E 135°07'0 0.0
2018-Feb-16 11:58N 34°12' E 135°07'0 0.1
2018-Feb-16 11:28N 34°12' E 135°07'0 0.0
2018-Feb-16 10:58N 34°12' E 135°07'0 0.0
2018-Feb-16 10:28N 34°12' E 135°07'0 0.0
2018-Feb-16 09:58N 34°12' E 135°07'0 0.0
2018-Feb-16 09:28N 34°12' E 135°07'0 0.0
2018-Feb-16 08:58N 34°12' E 135°07'0 0.0
2018-Feb-16 08:28N 34°12' E 135°07'0 0.0
2018-Feb-16 07:58N 34°12' E 135°07'0 0.0
2018-Feb-16 07:28N 34°12' E 135°07'0 0.0
2018-Feb-16 06:58N 34°12' E 135°07'0 0.0
2018-Feb-16 06:28N 34°12' E 135°07'0 0.0
2018-Feb-16 05:58N 34°12' E 135°07'0 0.0
2018-Feb-16 05:28N 34°12' E 135°07'0 0.0
2018-Feb-16 04:58N 34°12' E 135°07'0 0.0
2018-Feb-16 04:28N 34°12' E 135°07'0 0.0
2018-Feb-16 03:58N 34°12' E 135°07'0 0.0
2018-Feb-16 03:28N 34°12' E 135°07'0 0.0
2018-Feb-16 02:58N 34°12' E 135°07'0 0.0
2018-Feb-16 02:28N 34°12' E 135°07'0 0.1
2018-Feb-16 01:58N 34°12' E 135°07'0 0.0
2018-Feb-16 01:28N 34°12' E 135°07'0 0.1
2018-Feb-16 00:58N 34°12' E 135°07'0 0.0
2018-Feb-16 00:28N 34°12' E 135°07'0 0.0
2018-Feb-15 23:58N 34°12' E 135°07'0 0.0
2018-Feb-15 23:28N 34°12' E 135°07'0 0.0
2018-Feb-15 22:58N 34°12' E 135°07'0 0.0
2018-Feb-15 22:28N 34°12' E 135°07'0 0.0
2018-Feb-15 21:58N 34°12' E 135°07'0 0.1
2018-Feb-15 21:28N 34°12' E 135°07'0 0.0
2018-Feb-15 20:58N 34°12' E 135°07'0 0.0
2018-Feb-15 20:28N 34°12' E 135°07'0 0.1
2018-Feb-15 19:58N 34°12' E 135°07'0 0.0
2018-Feb-15 19:28N 34°12' E 135°07'0 0.1
2018-Feb-15 18:58N 34°12' E 135°07'0 0.0
2018-Feb-15 18:28N 34°12' E 135°07'0 0.0
2018-Feb-15 17:58N 34°12' E 135°07'0 0.0
2018-Feb-15 17:28N 34°12' E 135°07'0 0.0
2018-Feb-15 16:58N 34°12' E 135°07'0 0.0
2018-Feb-15 16:28N 34°12' E 135°07'0 0.0
2018-Feb-15 15:58N 34°12' E 135°07'0 0.1
2018-Feb-15 15:28N 34°12' E 135°07'0 0.1
2018-Feb-15 14:58N 34°12' E 135°07'0 0.0
2018-Feb-15 14:28N 34°12' E 135°07'0 0.0
2018-Feb-15 13:58N 34°12' E 135°07'0 0.6
2018-Feb-15 13:30N 34°11' E 135°07'510.3
2018-Feb-15 13:00N 34°08' E 135°03'611.6
2018-Feb-15 12:30N 34°02' E 135°01'611.8
2018-Feb-15 12:00N 33°56' E 134°59'611.7
2018-Feb-15 11:31N 33°51' E 134°57'1512.1
2018-Feb-15 10:18N 33°40' E 134°45'  
2018-Feb-12 09:15N 33°41' E 134°43'1612.9
2018-Feb-12 07:59N 33°55' E 134°55'714.0
2018-Feb-12 07:30N 34°01' E 134°56'713.4
2018-Feb-12 07:01N 34°07' E 134°59'713.7
2018-Feb-12 06:31N 34°13' E 135°04'4 6.8
2018-Feb-12 05:59N 34°14' E 135°08'0 0.0
2018-Feb-12 05:29N 34°14' E 135°08'0 0.0
2018-Feb-12 04:59N 34°14' E 135°08'0 0.0
2018-Feb-12 04:29N 34°14' E 135°08'0 0.0
2018-Feb-12 03:59N 34°14' E 135°08'0 0.0
2018-Feb-12 03:29N 34°14' E 135°08'0 0.0
2018-Feb-12 02:56N 34°14' E 135°08'0 0.0
2018-Feb-12 02:29N 34°14' E 135°08'0 0.0
2018-Feb-12 01:59N 34°14' E 135°08'0 0.0
2018-Feb-12 01:29N 34°14' E 135°08'0 0.0
2018-Feb-12 00:59N 34°14' E 135°08'0 0.0
2018-Feb-12 00:29N 34°14' E 135°08'0 0.0
2018-Feb-11 23:59N 34°14' E 135°08'0 0.0
2018-Feb-11 23:29N 34°14' E 135°08'0 0.0
2018-Feb-11 22:59N 34°14' E 135°08'0 0.0
2018-Feb-11 22:29N 34°14' E 135°08'0 0.0
2018-Feb-11 21:59N 34°14' E 135°08'0 0.0
2018-Feb-11 21:29N 34°14' E 135°08'0 0.0
2018-Feb-11 20:59N 34°14' E 135°08'0 0.0
2018-Feb-11 20:29N 34°14' E 135°08'0 0.0
2018-Feb-11 19:59N 34°14' E 135°08'0 0.1
2018-Feb-11 19:29N 34°14' E 135°08'0 0.0
2018-Feb-11 18:59N 34°14' E 135°08'0 0.1
2018-Feb-11 18:29N 34°14' E 135°08'0 0.0
2018-Feb-11 17:59N 34°14' E 135°08'0 0.0
2018-Feb-11 17:29N 34°14' E 135°08'0 0.0
2018-Feb-11 16:59N 34°14' E 135°08'0 0.0
2018-Feb-11 16:29N 34°14' E 135°08'0 0.0
2018-Feb-11 15:59N 34°14' E 135°08'0 0.0
2018-Feb-11 15:29N 34°14' E 135°08'0 0.0
2018-Feb-11 14:59N 34°14' E 135°08'0 0.0
2018-Feb-11 14:29N 34°14' E 135°08'0 0.0
2018-Feb-11 13:59N 34°14' E 135°08'0 0.0
2018-Feb-11 13:29N 34°14' E 135°08'0 0.0
2018-Feb-11 12:59N 34°14' E 135°08'0 0.0
2018-Feb-11 12:29N 34°14' E 135°08'1 1.2
2018-Feb-11 12:00N 34°14' E 135°07'2 4.7
2018-Feb-11 11:31N 34°12' E 135°06'2 3.8
2018-Feb-11 10:59N 34°11' E 135°07'0 0.0
2018-Feb-11 10:29N 34°11' E 135°07'0 0.0
2018-Feb-11 09:59N 34°11' E 135°07'0 0.0
2018-Feb-11 09:29N 34°11' E 135°07'0 0.0
2018-Feb-11 08:59N 34°11' E 135°07'0 0.1
2018-Feb-11 08:29N 34°11' E 135°07'0 0.0
2018-Feb-11 07:59N 34°11' E 135°07'0 0.0
2018-Feb-11 07:29N 34°11' E 135°07'0 0.0
2018-Feb-11 06:59N 34°11' E 135°07'0 0.0
2018-Feb-11 06:29N 34°11' E 135°07'0 0.0
2018-Feb-11 05:59N 34°11' E 135°07'0 0.0
2018-Feb-11 05:29N 34°11' E 135°07'0 0.0
2018-Feb-11 04:59N 34°11' E 135°07'0 0.0
2018-Feb-11 04:29N 34°11' E 135°07'0 0.0
2018-Feb-11 03:59N 34°11' E 135°07'0 0.3
2018-Feb-11 03:30N 34°11' E 135°07'4 7.5
2018-Feb-11 03:01N 34°09' E 135°03'510.9
2018-Feb-11 02:30N 34°04' E 135°01'511.0
2018-Feb-11 02:01N 33°58' E 134°60'  

Dump ship's entire track history